Αναφορές METAR Αεροδρομίων

 

LGTS - THESSALONIKI - GREECE
Ενημερώθηκε: 27/02/2020 22:20
Αραιές Νεφώσεις
Αραιές Νεφώσεις
 Ανεμος από ΒΒΔ
Ανεμος: ΒΒΔ 28 km/h, Ριπή: 46 km/h
Θερμοκρασία: 9°C
Wind Chill: 6°C
Σημ. Δρόσου: 0°C
Υγρασία: 54%
Βαρόμετρο: 1010 hPa
Clouds: Αραιές Νεφώσεις
Visibility: 10 km
Cloud details: Αραιές Νεφώσεις 762 m
2020/02/27 20:20 LGTS 272020Z 33015G25KT 9999 FEW025 09/00 Q1010 NOSIG
LGLR - LARTISA - GREECE
Ενημερώθηκε: 27/02/2020 21:50
Αραιές Νεφώσεις
Αραιές Νεφώσεις
 Ανεμος από Δ
Ανεμος: Δ 19 km/h
Θερμοκρασία: 8°C
Wind Chill: 4°C
Σημ. Δρόσου: -2°C
Υγρασία: 50%
Βαρόμετρο: 1012 hPa
Clouds: Αραιές Νεφώσεις
Visibility: 10 km
Cloud details: Αραιές Νεφώσεις 914 m
2020/02/27 19:50 LGLR 271950Z 28010KT 9999 FEW030 08/M02 Q1012 BLU
 
LGKZ - KOZANI - GREECE
Ενημερώθηκε: 27/02/2020 22:20

 Ανεμος από ΔΝΔ
Ανεμος: ΔΝΔ 7 km/h
Θερμοκρασία: 4°C
Wind Chill: 2°C
Σημ. Δρόσου: -7°C
Υγρασία: 45%
Βαρόμετρο: 1012 hPa
2020/02/27 20:20 LGKZ 272020Z AUTO 24004KT 200V350 //// // ////// 04/M07 Q1012 RE//
LGKV - KAVALA - GREECE
Ενημερώθηκε: 27/02/2020 22:20
Αραιές Νεφώσεις
Αραιές Νεφώσεις
 Ανεμος από Δ
Ανεμος: Δ 24 km/h
Θερμοκρασία: 9°C
Wind Chill: 6°C
Σημ. Δρόσου: 2°C
Υγρασία: 62%
Βαρόμετρο: 1008 hPa
Clouds: Αραιές Νεφώσεις
Visibility: 10 km
Cloud details: Αραιές Νεφώσεις 762 m
2020/02/27 20:20 LGKV 272020Z 28013KT 9999 FEW025 09/02 Q1008
 
LGIO - IOANNINA - GREECE
Ενημερώθηκε: 27/02/2020 22:20

 Ανεμος από varies
Ανεμος: varies 4 km/h
Θερμοκρασία: 1°C
Σημ. Δρόσου: 0°C
Υγρασία: 93%
Βαρόμετρο: 1015 hPa
2020/02/27 20:20 LGIO 272020Z AUTO VRB02KT //// // ////// 01/00 Q1015 RE//
LGBL - BOLOS - GREECE
Ενημερώθηκε: 27/02/2020 21:50
Αραιές Νεφώσεις
Αραιές Νεφώσεις
 Ανεμος από ΒΔ
Ανεμος: ΒΔ 9 km/h
Θερμοκρασία: 7°C
Wind Chill: 6°C
Σημ. Δρόσου: -1°C
Υγρασία: 57%
Βαρόμετρο: 1012 hPa
Clouds: Αραιές Νεφώσεις
Visibility: 10 km
Cloud details: Αραιές Νεφώσεις 1219 m
2020/02/27 19:50 LGBL 271950Z 31005KT 9999 FEW040 07/M01 Q1012
 
LGMT - MITILINI - GREECE
Ενημερώθηκε: 27/02/2020 22:20
Μερικώς νεφελώδης
Μερικώς νεφελώδης
 Ανεμος από ΔΒΔ
Ανεμος: ΔΒΔ 9 km/h
Θερμοκρασία: 13°C
Σημ. Δρόσου: 7°C
Υγρασία: 67%
Βαρόμετρο: 1010 hPa
Clouds: Μερικώς νεφελώδης
Visibility: 10 km
Cloud details: Μερικώς νεφελώδης 610 m
2020/02/27 20:20 LGMT 272020Z 30005KT 9999 SCT020TCU 13/07 Q1010
LGAV - ATHENS - GREECE
Ενημερώθηκε: 27/02/2020 22:20
Αίθριος
Αίθριος
 Ανεμος από Δ
Ανεμος: Δ 26 km/h
Θερμοκρασία: 12°C
Σημ. Δρόσου: 0°C
Υγρασία: 44%
Βαρόμετρο: 1012 hPa
Περίληψη: Αίθριος
Visibility: greater than 10 km
2020/02/27 20:20 LGAV 272020Z 26014KT CAVOK 12/00 Q1012 NOSIG
 
LGRP - RODOS - GREECE
Ενημερώθηκε: 27/02/2020 22:20
Μερικώς νεφελώδης
Μερικώς νεφελώδης
 Ανεμος από varies
Ανεμος: varies 6 km/h
Θερμοκρασία: 16°C
Σημ. Δρόσου: 14°C
Υγρασία: 88%
Βαρόμετρο: 1013 hPa
Clouds: Μερικώς νεφελώδης
Visibility: 10 km
Cloud details: Αραιές Νεφώσεις 305 m
Μερικώς νεφελώδης 762 m
2020/02/27 20:20 LGRP 272020Z VRB03KT 9999 FEW010 SCT025 16/14 Q1013 NOSIG
LGIR - HRAKLIO/KRITI - GREECE
Ενημερώθηκε: 27/02/2020 22:20
Αραιές Νεφώσεις
Αραιές Νεφώσεις
 Ανεμος από ΝΝΔ
Ανεμος: ΝΝΔ 7 km/h
Θερμοκρασία: 13°C
Σημ. Δρόσου: 10°C
Υγρασία: 82%
Βαρόμετρο: 1014 hPa
Clouds: Αραιές Νεφώσεις
Visibility: 10 km
Cloud details: Αραιές Νεφώσεις 762 m
2020/02/27 20:20 LGIR 272020Z 21004KT 9999 FEW025 13/10 Q1014 NOSIG
 
LGMK - MIKONOS - GREECE
Ενημερώθηκε: 27/02/2020 19:50
NOT Current
Αραιές Νεφώσεις
Αραιές Νεφώσεις
 Ανεμος από Δ
Ανεμος: Δ 17 km/h
Θερμοκρασία: 15°C
Σημ. Δρόσου: 9°C
Υγρασία: 68%
Βαρόμετρο: 1010 hPa
Clouds: Αραιές Νεφώσεις
Visibility: 10 km
Cloud details: Αραιές Νεφώσεις 366 m
2020/02/27 17:50 LGMK 271750Z 26009KT 9999 FEW012 15/09 Q1010
LGKR - KERKIRA - GREECE
Ενημερώθηκε: 27/02/2020 22:20
Μερικώς νεφελώδης
Μερικώς νεφελώδης
 Ανεμος από ΝΔ
Ανεμος: ΝΔ 4 km/h
Θερμοκρασία: 8°C
Σημ. Δρόσου: 4°C
Υγρασία: 76%
Βαρόμετρο: 1014 hPa
Clouds: Μερικώς νεφελώδης
Visibility: 10 km
Cloud details: Μερικώς νεφελώδης 762 m
2020/02/27 20:20 LGKR 272020Z 22002KT 9999 SCT025 08/04 Q1014 NOSIG